createdAt,value
2018-01-22T00:01:14.647Z,2.50
2018-01-22T00:03:42.873Z,2.50
2018-01-22T00:06:10.310Z,2.50
2018-01-22T00:08:37.758Z,2.50
2018-01-22T00:11:05.217Z,2.50
2018-01-22T00:13:33.443Z,2.50
2018-01-22T00:16:00.896Z,2.50
2018-01-22T00:18:28.346Z,2.50
2018-01-22T00:20:55.847Z,2.60
2018-01-22T00:23:23.324Z,2.60
2018-01-22T00:25:50.770Z,2.60
2018-01-22T00:28:18.312Z,2.60
2018-01-22T00:30:45.769Z,2.60
2018-01-22T00:33:13.237Z,2.60
2018-01-22T00:35:40.691Z,2.50
2018-01-22T00:38:08.127Z,2.60
2018-01-22T00:40:36.350Z,2.60
2018-01-22T00:43:03.804Z,2.50
2018-01-22T00:45:32.018Z,2.60
2018-01-22T00:47:59.469Z,2.50
2018-01-22T00:50:26.934Z,2.50
2018-01-22T00:52:54.371Z,2.50
2018-01-22T00:55:21.836Z,2.50
2018-01-22T00:57:49.301Z,2.50
2018-01-22T01:00:16.754Z,2.50
2018-01-22T01:02:44.228Z,2.50
2018-01-22T01:05:11.683Z,2.50
2018-01-22T01:07:39.134Z,2.50
2018-01-22T01:10:06.593Z,2.50
2018-01-22T01:12:34.057Z,2.50
2018-01-22T01:15:01.488Z,2.60
2018-01-22T01:17:29.713Z,2.60
2018-01-22T01:19:57.180Z,2.50
2018-01-22T01:22:24.686Z,2.50
2018-01-22T01:24:52.146Z,2.60
2018-01-22T01:27:19.591Z,2.50
2018-01-22T01:29:47.052Z,2.50
2018-01-22T01:32:14.492Z,2.60
2018-01-22T01:34:41.972Z,2.60
2018-01-22T01:37:09.430Z,2.60
2018-01-22T01:39:36.878Z,2.60
2018-01-22T01:42:04.331Z,2.60
2018-01-22T01:44:31.806Z,2.60
2018-01-22T01:46:59.319Z,2.60
2018-01-22T01:49:26.753Z,2.60
2018-01-22T01:51:54.213Z,2.60
2018-01-22T01:54:21.667Z,2.60
2018-01-22T01:56:49.117Z,2.50
2018-01-22T01:59:16.568Z,2.60
2018-01-22T02:01:44.030Z,2.60
2018-01-22T02:04:11.486Z,2.60
2018-01-22T02:06:38.959Z,2.60
2018-01-22T02:09:06.412Z,2.60
2018-01-22T02:11:33.845Z,2.60
2018-01-22T02:14:02.080Z,2.60
2018-01-22T02:16:29.532Z,2.60
2018-01-22T02:18:57.646Z,2.60
2018-01-22T02:21:25.103Z,2.60
2018-01-22T02:23:52.589Z,2.60
2018-01-22T02:26:20.817Z,2.60
2018-01-22T02:28:48.284Z,2.60
2018-01-22T02:31:15.729Z,2.70
2018-01-22T02:33:43.192Z,2.60
2018-01-22T02:36:10.654Z,2.60
2018-01-22T02:38:38.116Z,2.60
2018-01-22T02:41:05.582Z,2.60
2018-01-22T02:43:33.783Z,2.70
2018-01-22T02:46:01.247Z,2.70
2018-01-22T02:48:28.707Z,2.70
2018-01-22T02:50:56.168Z,2.70
2018-01-22T02:53:23.612Z,2.70
2018-01-22T02:55:51.063Z,2.70
2018-01-22T02:58:18.613Z,2.70
2018-01-22T03:00:46.829Z,2.70
2018-01-22T03:03:14.301Z,2.70
2018-01-22T03:05:41.760Z,2.70
2018-01-22T03:08:09.203Z,2.70
2018-01-22T03:10:36.664Z,2.80
2018-01-22T03:13:04.107Z,2.80
2018-01-22T03:15:32.332Z,2.80
2018-01-22T03:17:59.789Z,2.80
2018-01-22T03:20:27.239Z,2.80
2018-01-22T03:22:54.712Z,2.80
2018-01-22T03:25:22.157Z,2.80
2018-01-22T03:27:49.711Z,2.80
2018-01-22T03:30:17.158Z,2.80
2018-01-22T03:32:45.378Z,2.90
2018-01-22T03:35:12.846Z,2.80
2018-01-22T03:37:40.307Z,2.90
2018-01-22T03:40:07.776Z,2.90
2018-01-22T03:42:35.225Z,2.90
2018-01-22T03:45:02.679Z,2.90
2018-01-22T03:47:30.143Z,2.90
2018-01-22T03:49:57.608Z,2.90
2018-01-22T03:52:25.041Z,2.90
2018-01-22T03:54:53.276Z,3.00
2018-01-22T03:57:20.739Z,3.00
2018-01-22T03:59:48.194Z,3.00
2018-01-22T04:02:15.651Z,3.00
2018-01-22T04:04:43.883Z,3.10
2018-01-22T04:07:19.780Z,3.10
2018-01-22T04:09:47.514Z,3.10
2018-01-22T04:12:15.883Z,3.20
2018-01-22T04:14:43.355Z,3.20
2018-01-22T04:17:11.579Z,3.20
2018-01-22T04:19:39.029Z,3.20
2018-01-22T04:22:06.496Z,3.20
2018-01-22T04:24:33.955Z,3.20
2018-01-22T04:27:01.514Z,3.20
2018-01-22T04:29:28.987Z,3.20
2018-01-22T04:31:56.448Z,3.20
2018-01-22T04:34:23.921Z,3.30
2018-01-22T04:36:51.374Z,3.30
2018-01-22T04:39:18.834Z,3.40
2018-01-22T04:41:46.311Z,3.50
2018-01-22T04:44:13.771Z,3.50
2018-01-22T04:46:42.005Z,3.60
2018-01-22T04:49:10.223Z,3.60
2018-01-22T04:51:37.677Z,3.60
2018-01-22T04:54:05.114Z,3.70
2018-01-22T04:56:33.340Z,3.80
2018-01-22T04:59:00.795Z,3.80
2018-01-22T05:01:28.266Z,3.70
2018-01-22T05:03:55.720Z,3.80
2018-01-22T05:06:23.236Z,3.80
2018-01-22T05:08:50.695Z,3.90
2018-01-22T05:11:18.141Z,4.00
2018-01-22T05:13:45.621Z,4.10
2018-01-22T05:16:13.083Z,4.10
2018-01-22T05:18:40.547Z,4.30
2018-01-22T05:21:08.024Z,4.60
2018-01-22T05:23:36.249Z,4.90
2018-01-22T05:26:03.726Z,4.80
2018-01-22T05:28:31.221Z,5.10
2018-01-22T05:30:58.675Z,5.30
2018-01-22T05:33:26.135Z,5.30
2018-01-22T05:35:53.581Z,5.20
2018-01-22T05:38:21.046Z,5.20
2018-01-22T05:40:48.575Z,5.40
2018-01-22T05:43:16.018Z,5.40
2018-01-22T05:45:43.483Z,5.30
2018-01-22T05:48:10.979Z,5.40
2018-01-22T05:50:39.202Z,5.30
2018-01-22T05:53:06.669Z,5.30
2018-01-22T05:55:34.131Z,5.20
2018-01-22T05:58:01.617Z,5.20
2018-01-22T06:00:29.861Z,5.30
2018-01-22T06:02:57.294Z,5.30
2018-01-22T06:05:24.760Z,5.30
2018-01-22T06:07:52.238Z,5.30
2018-01-22T06:10:19.809Z,5.40
2018-01-22T06:12:47.255Z,5.40
2018-01-22T06:15:14.710Z,5.50
2018-01-22T06:17:42.140Z,5.60
2018-01-22T06:20:09.622Z,5.50
2018-01-22T06:22:37.056Z,5.40
2018-01-22T06:25:05.265Z,5.40
2018-01-22T06:27:32.719Z,5.30
2018-01-22T06:30:00.285Z,5.50
2018-01-22T06:32:27.736Z,5.50
2018-01-22T06:34:55.186Z,5.50
2018-01-22T06:37:23.429Z,5.40
2018-01-22T06:39:50.903Z,5.40
2018-01-22T06:42:18.367Z,5.40
2018-01-22T06:44:45.844Z,5.60
2018-01-22T06:47:13.298Z,5.60
2018-01-22T06:49:40.755Z,5.60
2018-01-22T06:52:08.223Z,5.70
2018-01-22T06:54:35.673Z,5.40
2018-01-22T06:57:03.143Z,5.60
2018-01-22T06:59:30.610Z,5.50
2018-01-22T07:01:58.072Z,5.60
2018-01-22T07:04:25.533Z,5.60
2018-01-22T07:06:53.007Z,5.70
2018-01-22T07:09:21.229Z,5.60
2018-01-22T07:11:48.692Z,5.50
2018-01-22T07:14:16.159Z,5.60
2018-01-22T07:16:43.616Z,5.70
2018-01-22T07:19:11.075Z,5.80
2018-01-22T07:21:38.535Z,5.70
2018-01-22T07:24:05.967Z,5.80
2018-01-22T07:26:34.209Z,5.80
2018-01-22T07:29:01.656Z,5.80
2018-01-22T07:31:29.131Z,5.80
2018-01-22T07:33:56.626Z,5.80
2018-01-22T07:36:24.165Z,5.90
2018-01-22T07:38:51.595Z,5.90
2018-01-22T07:41:19.057Z,5.90
2018-01-22T07:43:46.525Z,5.90
2018-01-22T07:46:13.969Z,5.90
2018-01-22T07:48:41.429Z,5.90
2018-01-22T07:51:08.872Z,5.90
2018-01-22T07:53:37.096Z,5.90
2018-01-22T07:56:04.552Z,5.90
2018-01-22T07:58:31.995Z,6.00
2018-01-22T08:00:59.430Z,5.90
2018-01-22T08:03:26.898Z,5.90
2018-01-22T08:05:54.352Z,5.90
2018-01-22T08:08:21.821Z,6.00
2018-01-22T08:10:49.300Z,6.00
2018-01-22T08:13:17.503Z,6.00
2018-01-22T08:15:44.966Z,6.00
2018-01-22T08:18:12.434Z,6.10
2018-01-22T08:20:39.930Z,6.00
2018-01-22T08:23:07.444Z,6.10
2018-01-22T08:25:34.995Z,5.90
2018-01-22T08:28:03.225Z,6.20
2018-01-22T08:30:31.189Z,6.20
2018-01-22T08:32:58.653Z,6.10
2018-01-22T08:35:26.121Z,6.10
2018-01-22T08:37:53.593Z,6.10
2018-01-22T08:40:21.048Z,6.10
2018-01-22T08:42:48.517Z,6.00
2018-01-22T08:45:15.981Z,6.10
2018-01-22T08:47:43.438Z,6.10
2018-01-22T08:50:10.910Z,6.20
2018-01-22T08:52:38.367Z,6.20
2018-01-22T08:55:05.839Z,6.30
2018-01-22T08:57:33.274Z,6.20
2018-01-22T09:00:00.714Z,6.20
2018-01-22T09:02:28.175Z,6.10
2018-01-22T09:04:55.640Z,6.20
2018-01-22T09:07:23.854Z,6.20
2018-01-22T09:09:51.340Z,6.20
2018-01-22T09:12:18.811Z,6.20
2018-01-22T09:14:46.281Z,6.30
2018-01-22T09:17:13.743Z,6.30
2018-01-22T09:19:41.186Z,6.30
2018-01-22T09:22:08.650Z,6.30
2018-01-22T09:24:36.122Z,6.40
2018-01-22T09:27:03.591Z,6.30
2018-01-22T09:29:31.038Z,6.40
2018-01-22T09:31:58.518Z,6.30
2018-01-22T09:34:25.979Z,6.40
2018-01-22T09:36:53.436Z,6.30
2018-01-22T09:39:20.993Z,6.30
2018-01-22T09:41:48.354Z,6.40
2018-01-22T09:44:15.804Z,6.40
2018-01-22T09:46:43.244Z,6.40
2018-01-22T09:49:10.685Z,6.30
2018-01-22T09:51:38.169Z,6.40
2018-01-22T09:54:05.673Z,6.40
2018-01-22T09:56:33.109Z,6.60
2018-01-22T09:59:00.554Z,6.60
2018-01-22T10:01:28.023Z,6.60
2018-01-22T10:03:55.466Z,6.50
2018-01-22T10:06:22.918Z,6.50
2018-01-22T10:08:51.156Z,6.60
2018-01-22T10:11:19.379Z,6.70
2018-01-22T10:13:47.607Z,6.60
2018-01-22T10:16:16.042Z,6.60
2018-01-22T10:18:44.246Z,6.80
2018-01-22T10:21:11.702Z,6.80
2018-01-22T10:23:39.160Z,6.80
2018-01-22T10:26:06.636Z,6.70
2018-01-22T10:28:34.100Z,6.60
2018-01-22T10:31:01.552Z,6.60
2018-01-22T10:33:29.009Z,6.70
2018-01-22T10:35:56.508Z,6.70
2018-01-22T10:38:23.954Z,6.70
2018-01-22T10:40:51.546Z,6.70
2018-01-22T10:43:18.994Z,6.80
2018-01-22T10:45:46.441Z,6.80
2018-01-22T10:48:13.902Z,6.90
2018-01-22T10:50:41.350Z,7.00
2018-01-22T10:53:08.798Z,6.90
2018-01-22T10:55:37.014Z,6.90
2018-01-22T10:58:04.474Z,6.90
2018-01-22T11:00:31.913Z,7.00
2018-01-22T11:02:59.362Z,6.90
2018-01-22T11:05:27.691Z,6.90
2018-01-22T11:07:55.141Z,6.90
2018-01-22T11:10:22.624Z,7.00
2018-01-22T11:12:50.096Z,7.00
2018-01-22T11:15:17.550Z,7.00
2018-01-22T11:17:45.007Z,7.00
2018-01-22T11:20:12.468Z,7.00
2018-01-22T11:22:39.912Z,7.00
2018-01-22T11:25:07.375Z,7.10
2018-01-22T11:27:34.876Z,7.10
2018-01-22T11:30:02.286Z,7.10
2018-01-22T11:32:30.500Z,7.00
2018-01-22T11:34:57.982Z,7.00
2018-01-22T11:37:25.430Z,7.10
2018-01-22T11:39:52.883Z,7.20
2018-01-22T11:42:21.131Z,7.10
2018-01-22T11:44:49.370Z,7.10
2018-01-22T11:47:16.823Z,7.10
2018-01-22T11:49:44.285Z,7.20
2018-01-22T11:52:11.717Z,7.10
2018-01-22T11:54:39.179Z,7.10
2018-01-22T11:57:06.649Z,7.20
2018-01-22T11:59:34.223Z,7.20
2018-01-22T12:02:01.658Z,7.10
2018-01-22T12:04:29.108Z,7.20
2018-01-22T12:06:57.324Z,7.10
2018-01-22T12:09:24.795Z,7.10
2018-01-22T12:11:52.222Z,7.20
2018-01-22T12:14:19.682Z,7.10
2018-01-22T12:16:47.134Z,7.20
2018-01-22T12:19:15.365Z,7.20
2018-01-22T12:21:42.888Z,7.20
2018-01-22T12:24:10.319Z,7.20
2018-01-22T12:26:37.765Z,7.20
2018-01-22T12:29:05.235Z,7.30
2018-01-22T12:31:32.680Z,7.30
2018-01-22T12:34:00.163Z,7.20
2018-01-22T12:36:27.586Z,7.20
2018-01-22T12:38:55.066Z,7.20
2018-01-22T12:41:22.487Z,7.20
2018-01-22T12:43:49.940Z,7.30
2018-01-22T12:46:17.408Z,7.30
2018-01-22T12:48:45.645Z,7.30
2018-01-22T12:51:13.086Z,7.20
2018-01-22T12:53:40.547Z,7.20
2018-01-22T12:56:08.071Z,7.30
2018-01-22T12:58:38.189Z,7.20
2018-01-22T13:01:06.508Z,7.30
2018-01-22T13:03:33.983Z,7.30
2018-01-22T13:06:01.443Z,7.20
2018-01-22T13:08:28.919Z,7.20
2018-01-22T13:10:56.415Z,7.20
2018-01-22T13:13:23.859Z,7.20
2018-01-22T13:15:51.305Z,7.20
2018-01-22T13:18:19.570Z,7.20
2018-01-22T13:20:47.010Z,7.20
2018-01-22T13:23:14.486Z,7.20
2018-01-22T13:25:41.948Z,7.20
2018-01-22T13:28:09.419Z,7.20
2018-01-22T13:30:36.867Z,7.30
2018-01-22T13:33:04.342Z,7.20
2018-01-22T13:35:31.812Z,7.20
2018-01-22T13:37:59.333Z,7.20
2018-01-22T13:40:32.300Z,7.20
2018-01-22T13:42:59.747Z,7.20
2018-01-22T13:45:27.211Z,7.20
2018-01-22T13:47:54.693Z,7.20
2018-01-22T13:50:22.165Z,7.10
2018-01-22T13:52:49.625Z,7.20
2018-01-22T13:55:17.083Z,7.20
2018-01-22T13:57:44.542Z,7.20
2018-01-22T14:00:11.998Z,7.20
2018-01-22T14:02:39.452Z,7.20
2018-01-22T14:05:06.899Z,7.10
2018-01-22T14:07:34.365Z,7.20
2018-01-22T14:10:01.820Z,7.20
2018-01-22T14:12:29.258Z,7.20
2018-01-22T14:14:56.723Z,7.20
2018-01-22T14:17:24.188Z,7.20
2018-01-22T14:19:51.884Z,7.20
2018-01-22T14:22:19.353Z,7.10
2018-01-22T14:24:46.820Z,7.20
2018-01-22T14:27:14.294Z,7.10
2018-01-22T14:29:41.761Z,7.10
2018-01-22T14:32:09.299Z,7.20
2018-01-22T14:34:36.768Z,7.20
2018-01-22T14:37:04.257Z,7.10
2018-01-22T14:39:31.728Z,7.10
2018-01-22T14:41:59.186Z,7.10
2018-01-22T14:44:26.647Z,7.00
2018-01-22T14:46:54.109Z,7.10
2018-01-22T14:49:21.591Z,7.10
2018-01-22T14:51:49.820Z,7.10
2018-01-22T14:54:17.264Z,7.00
2018-01-22T14:56:44.721Z,7.00
2018-01-22T14:59:12.169Z,7.00
2018-01-22T15:01:40.501Z,7.00
2018-01-22T15:04:07.975Z,7.00
2018-01-22T15:06:35.441Z,7.00
2018-01-22T15:09:04.006Z,7.00
2018-01-22T15:11:31.492Z,7.00
2018-01-22T15:13:59.080Z,7.00
2018-01-22T15:16:27.304Z,7.00
2018-01-22T15:18:54.771Z,7.00
2018-01-22T15:21:22.237Z,7.00
2018-01-22T15:23:50.480Z,7.00
2018-01-22T15:26:18.701Z,7.00
2018-01-22T15:28:46.169Z,7.00
2018-01-22T15:31:13.636Z,7.00
2018-01-22T15:33:41.096Z,7.00
2018-01-22T15:36:08.544Z,6.90
2018-01-22T15:38:35.999Z,6.90
2018-01-22T15:41:03.458Z,6.90
2018-01-22T15:43:30.907Z,6.90
2018-01-22T15:45:58.366Z,6.80
2018-01-22T15:48:26.604Z,6.90
2018-01-22T15:50:54.064Z,6.80
2018-01-22T15:53:21.539Z,6.80
2018-01-22T15:55:49.023Z,6.80
2018-01-22T15:58:17.251Z,6.80
2018-01-22T16:00:44.761Z,6.80
2018-01-22T16:03:12.222Z,6.80
2018-01-22T16:05:39.700Z,6.80
2018-01-22T16:08:07.234Z,6.80
2018-01-22T16:10:34.687Z,6.80
2018-01-22T16:13:02.155Z,6.70
2018-01-22T16:15:29.628Z,6.70
2018-01-22T16:17:57.095Z,6.70
2018-01-22T16:20:24.556Z,6.80
2018-01-22T16:22:52.002Z,6.70
2018-01-22T16:25:19.447Z,6.70
2018-01-22T16:27:46.905Z,6.70
2018-01-22T16:30:14.452Z,6.70
2018-01-22T16:32:41.897Z,6.70
2018-01-22T16:35:10.111Z,6.70
2018-01-22T16:37:37.557Z,6.70
2018-01-22T16:40:05.017Z,6.70
2018-01-22T16:42:32.467Z,6.60
2018-01-22T16:44:59.907Z,6.60
2018-01-22T16:47:32.946Z,6.70
2018-01-22T16:50:00.449Z,6.70
2018-01-22T16:52:27.892Z,6.70
2018-01-22T16:54:55.337Z,6.70
2018-01-22T16:57:22.790Z,6.70
2018-01-22T16:59:50.360Z,6.70
2018-01-22T17:02:17.847Z,6.70
2018-01-22T17:04:45.391Z,6.70
2018-01-22T17:07:12.767Z,6.70
2018-01-22T17:09:40.996Z,6.70
2018-01-22T17:12:08.464Z,6.70
2018-01-22T17:14:36.713Z,6.70
2018-01-22T17:17:04.160Z,6.70
2018-01-22T17:19:31.641Z,6.70
2018-01-22T17:21:59.082Z,6.70
2018-01-22T17:24:26.525Z,6.70
2018-01-22T17:26:53.975Z,6.80
2018-01-22T17:29:21.420Z,6.80
2018-01-22T17:31:48.900Z,6.70
2018-01-22T17:34:16.343Z,6.80
2018-01-22T17:36:45.142Z,6.70
2018-01-22T17:39:12.562Z,6.70
2018-01-22T17:41:40.020Z,6.70
2018-01-22T17:44:07.508Z,6.70
2018-01-22T17:46:34.959Z,6.80
2018-01-22T17:49:02.406Z,6.80
2018-01-22T17:51:29.871Z,6.80
2018-01-22T17:53:57.332Z,6.80
2018-01-22T17:56:24.808Z,6.80
2018-01-22T17:58:52.265Z,6.80
2018-01-22T18:01:19.739Z,6.80
2018-01-22T18:03:48.087Z,6.80
2018-01-22T18:06:15.527Z,6.80
2018-01-22T18:08:43.031Z,6.80
2018-01-22T18:11:10.479Z,6.80
2018-01-22T18:13:37.982Z,6.70
2018-01-22T18:16:06.202Z,6.70
2018-01-22T18:18:33.637Z,6.70
2018-01-22T18:21:01.881Z,6.80
2018-01-22T18:23:29.340Z,6.80
2018-01-22T18:25:56.790Z,6.80
2018-01-22T18:28:24.266Z,6.80
2018-01-22T18:30:51.740Z,6.70
2018-01-22T18:33:19.191Z,6.70
2018-01-22T18:35:46.678Z,6.70
2018-01-22T18:38:14.141Z,6.70
2018-01-22T18:40:41.693Z,6.60
2018-01-22T18:43:09.160Z,6.60
2018-01-22T18:45:36.614Z,6.60
2018-01-22T18:48:04.085Z,6.60
2018-01-22T18:50:31.580Z,6.60
2018-01-22T18:52:59.024Z,6.60
2018-01-22T18:55:27.246Z,6.60
2018-01-22T18:57:54.721Z,6.60
2018-01-22T19:00:22.172Z,6.60
2018-01-22T19:02:49.623Z,6.60
2018-01-22T19:05:17.076Z,6.60
2018-01-22T19:07:44.527Z,6.60
2018-01-22T19:10:11.966Z,6.60
2018-01-22T19:12:39.418Z,6.60
2018-01-22T19:15:06.875Z,6.70
2018-01-22T19:17:34.352Z,6.70
2018-01-22T19:20:01.805Z,6.70
2018-01-22T19:22:29.243Z,6.70
2018-01-22T19:24:56.687Z,6.70
2018-01-22T19:27:24.160Z,6.70
2018-01-22T19:29:51.619Z,6.60
2018-01-22T19:32:19.074Z,6.60
2018-01-22T19:34:46.513Z,6.60
2018-01-22T19:37:14.773Z,6.70
2018-01-22T19:39:42.333Z,6.70
2018-01-22T19:42:09.793Z,6.70
2018-01-22T19:44:37.320Z,6.60
2018-01-22T19:47:04.781Z,6.60
2018-01-22T19:49:32.262Z,6.60
2018-01-22T19:51:59.713Z,6.60
2018-01-22T19:54:27.175Z,6.70
2018-01-22T19:56:55.488Z,6.70
2018-01-22T19:59:22.929Z,6.70
2018-01-22T20:01:50.390Z,6.70
2018-01-22T20:04:17.868Z,6.70
2018-01-22T20:06:45.304Z,6.70
2018-01-22T20:09:12.795Z,6.70
2018-01-22T20:11:40.257Z,6.70
2018-01-22T20:14:07.713Z,6.70
2018-01-22T20:16:35.166Z,6.60
2018-01-22T20:19:02.611Z,6.60
2018-01-22T20:21:30.073Z,6.60
2018-01-22T20:23:57.514Z,6.50
2018-01-22T20:26:25.041Z,6.50
2018-01-22T20:28:52.532Z,6.50
2018-01-22T20:31:19.964Z,6.50
2018-01-22T20:33:47.431Z,6.40
2018-01-22T20:36:14.872Z,6.40
2018-01-22T20:38:42.335Z,6.30
2018-01-22T20:41:09.778Z,6.30
2018-01-22T20:43:37.232Z,6.30
2018-01-22T20:46:04.794Z,6.30
2018-01-22T20:48:32.272Z,6.30
2018-01-22T20:50:59.711Z,6.20
2018-01-22T20:53:27.917Z,6.20
2018-01-22T20:55:55.380Z,6.10
2018-01-22T20:58:22.831Z,6.10
2018-01-22T21:00:50.304Z,6.10
2018-01-22T21:03:17.739Z,6.10
2018-01-22T21:05:45.199Z,6.10
2018-01-22T21:08:12.664Z,6.10
2018-01-22T21:10:40.125Z,6.10
2018-01-22T21:13:08.336Z,6.10
2018-01-22T21:15:35.779Z,6.10
2018-01-22T21:18:03.231Z,6.10
2018-01-22T21:20:30.677Z,6.10
2018-01-22T21:22:58.142Z,6.10
2018-01-22T21:25:26.367Z,6.20
2018-01-22T21:27:53.821Z,6.10
2018-01-22T21:30:21.282Z,6.20
2018-01-22T21:32:48.743Z,6.20
2018-01-22T21:35:16.208Z,6.20
2018-01-22T21:37:43.658Z,6.20
2018-01-22T21:40:11.086Z,6.20
2018-01-22T21:42:38.530Z,6.20
2018-01-22T21:45:06.004Z,6.20
2018-01-22T21:47:33.461Z,6.30
2018-01-22T21:50:00.921Z,6.30
2018-01-22T21:52:28.452Z,6.30
2018-01-22T21:54:56.676Z,6.30
2018-01-22T21:57:24.148Z,6.30
2018-01-22T21:59:51.598Z,6.30
2018-01-22T22:02:19.095Z,6.40
2018-01-22T22:04:47.310Z,6.40
2018-01-22T22:07:14.774Z,6.40
2018-01-22T22:09:42.198Z,6.40
2018-01-22T22:12:09.657Z,6.40
2018-01-22T22:14:37.880Z,6.50
2018-01-22T22:17:05.328Z,6.40
2018-01-22T22:19:33.566Z,6.40
2018-01-22T22:22:01.007Z,6.40
2018-01-22T22:24:28.472Z,6.40
2018-01-22T22:26:55.926Z,6.40
2018-01-22T22:29:24.790Z,6.50
2018-01-22T22:31:52.248Z,6.40
2018-01-22T22:34:19.733Z,6.40
2018-01-22T22:36:47.172Z,6.40
2018-01-22T22:39:14.639Z,6.40
2018-01-22T22:41:42.090Z,6.40
2018-01-22T22:44:09.546Z,6.40
2018-01-22T22:46:37.001Z,6.50
2018-01-22T22:49:05.210Z,6.40
2018-01-22T22:51:32.670Z,6.40
2018-01-22T22:54:00.134Z,6.40
2018-01-22T22:56:27.599Z,6.30
2018-01-22T22:58:55.055Z,6.30
2018-01-22T23:01:22.502Z,6.30
2018-01-22T23:03:50.736Z,6.30
2018-01-22T23:06:18.202Z,6.30
2018-01-22T23:08:45.661Z,6.30
2018-01-22T23:11:13.118Z,6.30
2018-01-22T23:13:40.603Z,6.20
2018-01-22T23:16:08.073Z,6.30
2018-01-22T23:18:35.533Z,6.30
2018-01-22T23:21:02.997Z,6.30
2018-01-22T23:23:31.149Z,6.40
2018-01-22T23:25:58.616Z,6.30
2018-01-22T23:28:26.072Z,6.30
2018-01-22T23:30:53.511Z,6.40
2018-01-22T23:33:21.036Z,6.40
2018-01-22T23:35:49.241Z,6.30
2018-01-22T23:38:16.711Z,6.30
2018-01-22T23:40:44.173Z,6.30
2018-01-22T23:43:11.615Z,6.20
2018-01-22T23:45:39.846Z,6.30
2018-01-22T23:48:07.311Z,6.30
2018-01-22T23:50:34.773Z,6.30
2018-01-22T23:53:02.212Z,6.30
2018-01-22T23:55:29.654Z,6.30
2018-01-22T23:57:57.130Z,6.20
